Time;durP1;ratioP1;P1;durP2;ratioP2;P2;SDS_P1;SDS_P2;PMS_P1;PMS_P2;Temp;Humidity;BMP_temperature;BMP_pressure;BME280_temperature;BME280_humidity;BME280_pressure;Samples;Min_cycle;Max_cycle;Signal;HPM_P1;HPM_P2
2021/05/02 00:00:17;;;;;;;42.23;29.87;;;9.20;98.30;;;;;;5067761;23;20459;-80
2021/05/02 00:02:19;;;;;;;40.50;28.00;;;9.10;98.30;;;;;;5068352;23;20764;-80
2021/05/02 00:04:22;;;;;;;35.70;27.30;;;9.20;98.30;;;;;;5067664;23;20528;-80
2021/05/02 00:06:23;;;;;;;38.07;26.93;;;9.20;98.30;;;;;;5067194;23;20526;-80
2021/05/02 00:08:27;;;;;;;33.67;25.27;;;9.20;98.30;;;;;;5066415;23;20437;-80
2021/05/02 00:10:31;;;;;;;39.40;28.03;;;9.20;98.30;;;;;;5068475;23;20463;-80
2021/05/02 00:12:33;;;;;;;33.20;25.10;;;9.20;98.30;;;;;;5078575;23;20817;-81
2021/05/02 00:14:35;;;;;;;32.20;24.90;;;9.20;98.30;;;;;;5078071;23;20454;-81
2021/05/02 00:16:37;;;;;;;39.57;26.97;;;9.10;98.30;;;;;;5068474;23;20491;-81
2021/05/02 00:18:39;;;;;;;33.17;25.57;;;9.10;98.30;;;;;;5068968;23;20511;-80
2021/05/02 00:20:42;;;;;;;35.93;24.77;;;9.10;98.30;;;;;;5070084;23;20460;-80
2021/05/02 00:22:46;;;;;;;36.57;25.93;;;9.10;98.30;;;;;;5069459;23;20507;-80
2021/05/02 00:24:48;;;;;;;34.43;26.90;;;9.10;98.30;;;;;;5079129;23;20462;-80
2021/05/02 00:26:50;;;;;;;35.67;24.70;;;9.00;98.30;;;;;;5069225;23;20477;-81
2021/05/02 00:28:53;;;;;;;31.33;23.53;;;9.00;98.30;;;;;;5068939;23;20789;-80
2021/05/02 00:30:55;;;;;;;35.60;25.77;;;9.00;98.30;;;;;;5077188;23;20511;-80
2021/05/02 00:32:58;;;;;;;36.90;25.40;;;8.90;98.30;;;;;;5070422;23;20459;-80
2021/05/02 00:35:01;;;;;;;39.07;25.70;;;8.80;98.30;;;;;;5067839;23;20460;-80
2021/05/02 00:37:04;;;;;;;36.50;26.70;;;8.80;98.30;;;;;;5068870;23;20455;-80
2021/05/02 00:39:07;;;;;;;40.40;26.80;;;8.80;98.30;;;;;;5069297;23;20460;-79
2021/05/02 00:41:11;;;;;;;41.10;28.43;;;8.80;98.30;;;;;;5069817;23;20460;-80
2021/05/02 00:43:23;;;;;;;40.80;27.33;;;8.70;98.30;;;;;;5078091;23;20455;-79
2021/05/02 00:45:28;;;;;;;36.40;27.33;;;8.70;98.30;;;;;;5069030;23;20459;-79
2021/05/02 00:47:33;;;;;;;41.97;27.60;;;8.60;98.30;;;;;;5078045;23;20448;-80
2021/05/02 00:49:39;;;;;;;39.83;26.50;;;8.40;98.30;;;;;;5077660;23;20455;-79
2021/05/02 00:51:45;;;;;;;39.67;25.43;;;8.20;98.30;;;;;;5070532;23;20455;-79
2021/05/02 00:54:12;;;;;;;41.30;26.87;;;8.00;98.30;;;;;;5071501;23;20852;-79
2021/05/02 00:56:21;;;;;;;36.43;26.20;;;8.10;98.30;;;;;;5070411;23;21046;-79
2021/05/02 00:58:32;;;;;;;43.23;27.90;;;8.20;98.30;;;;;;5070504;23;20441;-78
2021/05/02 01:00:38;;;;;;;42.93;29.47;;;8.30;98.30;;;;;;5078273;23;20430;-80
2021/05/02 01:02:43;;;;;;;39.60;26.57;;;8.40;98.30;;;;;;5073631;23;20455;-80
2021/05/02 01:04:46;;;;;;;35.87;26.50;;;8.30;98.30;;;;;;5080045;23;20460;-80
2021/05/02 01:06:49;;;;;;;43.80;27.63;;;8.40;98.30;;;;;;5072450;23;20455;-80
2021/05/02 01:08:56;;;;;;;41.37;27.27;;;8.50;98.30;;;;;;5072602;23;20462;-79
2021/05/02 01:11:01;;;;;;;39.10;28.17;;;8.50;98.30;;;;;;5073022;23;20491;-81
2021/05/02 01:13:07;;;;;;;40.50;25.17;;;8.50;98.30;;;;;;5072919;23;20483;-79
2021/05/02 01:15:12;;;;;;;40.67;26.30;;;8.50;98.30;;;;;;5080332;23;20520;-81
2021/05/02 01:17:16;;;;;;;41.10;27.90;;;8.50;98.30;;;;;;5077283;23;20990;-80
2021/05/02 01:19:19;;;;;;;37.30;25.37;;;8.50;98.30;;;;;;5072200;23;20430;-79
2021/05/02 01:21:28;;;;;;;34.53;25.67;;;8.50;98.30;;;;;;5068572;23;20466;-81
2021/05/02 01:23:31;;;;;;;36.77;25.40;;;8.50;98.30;;;;;;5073475;23;20464;-80
2021/05/02 01:25:33;;;;;;;36.90;26.30;;;8.60;98.30;;;;;;5072843;23;20448;-80
2021/05/02 01:27:35;;;;;;;36.77;26.03;;;8.70;98.30;;;;;;5064484;23;20962;-81
2021/05/02 01:29:37;;;;;;;38.97;26.17;;;8.60;98.30;;;;;;5064945;23;20959;-81
2021/05/02 01:31:40;;;;;;;37.27;26.77;;;8.60;98.30;;;;;;5066483;23;20461;-80
2021/05/02 01:33:42;;;;;;;37.40;25.97;;;8.60;98.30;;;;;;5066334;23;20456;-79
2021/05/02 01:35:45;;;;;;;36.47;25.70;;;8.60;98.30;;;;;;5065883;23;20535;-80
2021/05/02 01:37:49;;;;;;;34.77;24.63;;;8.70;98.30;;;;;;5065816;23;20494;-80
2021/05/02 01:39:52;;;;;;;38.97;25.77;;;8.70;98.30;;;;;;5066737;23;20505;-80
2021/05/02 01:41:54;;;;;;;37.20;24.70;;;8.60;98.30;;;;;;5066724;23;20495;-80
2021/05/02 01:43:56;;;;;;;31.40;24.60;;;8.60;98.30;;;;;;5067456;23;20539;-80
2021/05/02 01:45:58;;;;;;;35.80;25.13;;;8.70;98.30;;;;;;5066629;23;20427;-80
2021/05/02 01:48:03;;;;;;;30.37;23.73;;;8.70;98.30;;;;;;5067302;23;20742;-80
2021/05/02 01:50:08;;;;;;;30.57;22.97;;;8.70;98.30;;;;;;5068835;23;20772;-81
2021/05/02 01:52:10;;;;;;;32.87;23.87;;;8.80;98.30;;;;;;5067575;23;20542;-80
2021/05/02 01:54:14;;;;;;;26.70;21.10;;;8.80;98.30;;;;;;5076037;23;21035;-79
2021/05/02 01:56:17;;;;;;;28.57;22.50;;;8.70;98.30;;;;;;5076146;23;20837;-80
2021/05/02 01:58:20;;;;;;;29.53;23.20;;;8.70;98.30;;;;;;5068037;23;20437;-80
2021/05/02 02:00:40;;;;;;;32.33;23.73;;;8.70;98.30;;;;;;5068337;23;20459;-80
2021/05/02 02:02:42;;;;;;;33.30;24.20;;;8.80;98.30;;;;;;5069161;23;20547;-80
2021/05/02 02:04:46;;;;;;;29.03;22.80;;;8.70;98.30;;;;;;5069174;23;21013;-81
2021/05/02 02:06:48;;;;;;;30.47;22.07;;;8.80;98.30;;;;;;5068293;23;20437;-81
2021/05/02 02:08:50;;;;;;;32.40;23.40;;;8.80;98.30;;;;;;5067630;23;20455;-79
2021/05/02 02:10:53;;;;;;;30.93;23.30;;;8.70;98.30;;;;;;5069236;23;20791;-79
2021/05/02 02:12:55;;;;;;;28.73;21.87;;;8.70;98.30;;;;;;5069313;23;20497;-80
2021/05/02 02:14:58;;;;;;;32.00;24.27;;;8.60;98.30;;;;;;5066773;23;20940;-80
2021/05/02 02:17:00;;;;;;;33.77;24.20;;;8.60;98.30;;;;;;5069008;23;20686;-81
2021/05/02 02:19:02;;;;;;;33.83;24.10;;;8.60;98.30;;;;;;5068298;23;20441;-81
2021/05/02 02:21:08;;;;;;;35.77;24.77;;;8.70;98.30;;;;;;5069926;23;20466;-80
2021/05/02 02:23:19;;;;;;;32.87;24.47;;;8.70;98.30;;;;;;5068703;23;20462;-79
2021/05/02 02:25:26;;;;;;;31.70;25.73;;;8.70;98.30;;;;;;5067148;23;20460;-81
2021/05/02 02:27:30;;;;;;;36.20;25.23;;;8.60;98.30;;;;;;5069301;23;20932;-80
2021/05/02 02:29:32;;;;;;;37.77;26.23;;;8.70;98.30;;;;;;5066313;23;20442;-80
2021/05/02 02:31:35;;;;;;;38.43;24.83;;;8.70;98.30;;;;;;5065688;23;20460;-81
2021/05/02 02:33:40;;;;;;;36.67;23.17;;;8.80;98.30;;;;;;5068155;23;20442;-81
2021/05/02 02:35:49;;;;;;;34.53;24.13;;;8.80;98.30;;;;;;5068045;23;20459;-80
2021/05/02 02:37:54;;;;;;;33.47;23.37;;;8.80;98.30;;;;;;5066131;23;20914;-80
2021/05/02 02:39:59;;;;;;;42.20;23.33;;;8.70;98.30;;;;;;5065722;23;20433;-80
2021/05/02 02:42:03;;;;;;;39.03;25.67;;;8.70;98.30;;;;;;5065758;23;20431;-80
2021/05/02 02:44:07;;;;;;;67.27;23.97;;;8.60;98.30;;;;;;5065396;23;20580;-81
2021/05/02 02:46:16;;;;;;;44.13;22.87;;;8.60;98.30;;;;;;5065354;23;20506;-81
2021/05/02 02:48:21;;;;;;;171.00;89.33;;;8.60;98.30;;;;;;5077817;23;20459;-81
2021/05/02 02:50:28;;;;;;;119.73;64.50;;;8.60;98.30;;;;;;5078653;23;20455;-80
2021/05/02 02:52:32;;;;;;;121.87;68.10;;;8.60;98.30;;;;;;5069454;23;20430;-81
2021/05/02 02:54:36;;;;;;;54.60;33.17;;;8.60;98.30;;;;;;5069993;23;20883;-81
2021/05/02 02:56:43;;;;;;;58.13;25.47;;;8.70;98.30;;;;;;5069226;23;20466;-80
2021/05/02 02:58:52;;;;;;;36.73;24.23;;;8.80;98.30;;;;;;5069131;23;21126;-81
2021/05/02 03:00:54;;;;;;;46.50;26.77;;;8.80;98.30;;;;;;5069266;23;20462;-81
2021/05/02 03:03:08;;;;;;;157.80;90.57;;;8.80;98.30;;;;;;5068703;23;20436;-80
2021/05/02 03:05:13;;;;;;;124.97;67.87;;;8.70;98.30;;;;;;5068082;23;20547;-81
2021/05/02 03:07:15;;;;;;;51.87;27.83;;;8.60;98.30;;;;;;5077128;23;20837;-81
2021/05/02 03:09:19;;;;;;;49.23;24.53;;;8.40;98.30;;;;;;5076663;23;20448;-81
2021/05/02 03:11:21;;;;;;;34.63;23.90;;;8.20;98.30;;;;;;5076354;23;20482;-82
2021/05/02 03:13:23;;;;;;;44.87;25.30;;;8.10;98.30;;;;;;5068924;23;20987;-80
2021/05/02 03:15:26;;;;;;;34.33;23.57;;;8.00;98.30;;;;;;5068547;23;20430;-81
2021/05/02 03:17:30;;;;;;;44.77;23.23;;;8.00;98.30;;;;;;5068487;23;20464;-80
2021/05/02 03:19:38;;;;;;;35.87;23.30;;;8.00;98.30;;;;;;5069149;23;20440;-81
2021/05/02 03:21:47;;;;;;;84.30;51.37;;;7.90;98.30;;;;;;5069327;23;20434;-81
2021/05/02 03:23:51;;;;;;;123.50;73.63;;;7.90;98.30;;;;;;5069638;23;20456;-81
2021/05/02 03:25:56;;;;;;;219.87;134.60;;;8.00;98.30;;;;;;5066204;23;20458;-81
2021/05/02 03:28:00;;;;;;;71.83;43.27;;;8.10;98.30;;;;;;5064762;23;20455;-81
2021/05/02 03:30:06;;;;;;;41.50;30.37;;;8.20;98.30;;;;;;5065160;23;20466;-80
2021/05/02 03:32:11;;;;;;;41.97;28.17;;;8.20;98.30;;;;;;5065441;23;20460;-80
2021/05/02 03:34:16;;;;;;;48.93;30.40;;;8.10;98.30;;;;;;5064626;23;20475;-81
2021/05/02 03:36:27;;;;;;;38.13;26.07;;;8.10;98.30;;;;;;5072599;23;20434;-80
2021/05/02 03:38:41;;;;;;;44.37;29.07;;;8.20;98.30;;;;;;5064649;23;20455;-81
2021/05/02 03:40:43;;;;;;;38.80;27.70;;;8.20;98.30;;;;;;5065278;23;20465;-81
2021/05/02 03:42:45;;;;;;;43.93;27.17;;;8.20;98.30;;;;;;5065103;23;20434;-81
2021/05/02 03:44:47;;;;;;;41.53;27.07;;;8.10;98.30;;;;;;5065061;23;20517;-81
2021/05/02 03:46:49;;;;;;;45.03;29.60;;;8.10;98.30;;;;;;5073325;23;20932;-81
2021/05/02 03:48:57;;;;;;;38.10;26.47;;;8.10;98.30;;;;;;5064592;23;20765;-80
2021/05/02 03:50:59;;;;;;;41.07;26.90;;;8.10;98.30;;;;;;5065053;23;20458;-80
2021/05/02 03:53:03;;;;;;;41.50;27.87;;;8.10;98.30;;;;;;5064905;23;20979;-80
2021/05/02 03:55:06;;;;;;;37.43;26.97;;;8.10;98.30;;;;;;5064177;23;20457;-81
2021/05/02 03:57:08;;;;;;;44.90;30.30;;;8.10;98.30;;;;;;5065018;23;21188;-79
2021/05/02 03:59:13;;;;;;;40.90;27.60;;;8.10;98.30;;;;;;5072398;23;20769;-81
2021/05/02 04:01:20;;;;;;;38.33;27.73;;;8.10;98.30;;;;;;5065257;23;20466;-81
2021/05/02 04:03:22;;;;;;;45.60;29.00;;;8.10;98.30;;;;;;5064756;23;20430;-81
2021/05/02 04:05:24;;;;;;;39.40;27.43;;;8.10;98.30;;;;;;5064593;23;20430;-80
2021/05/02 04:07:25;;;;;;;38.90;26.03;;;8.10;98.30;;;;;;5065385;23;20430;-80
2021/05/02 04:09:29;;;;;;;42.40;29.27;;;8.20;98.30;;;;;;5064792;23;20896;-81
2021/05/02 04:11:31;;;;;;;40.93;26.90;;;8.20;98.30;;;;;;5065525;23;20437;-80
2021/05/02 04:13:33;;;;;;;45.03;29.50;;;8.20;98.30;;;;;;5065663;23;20451;-80
2021/05/02 04:15:35;;;;;;;45.57;29.40;;;8.20;98.30;;;;;;5066170;23;20431;-81
2021/05/02 04:17:37;;;;;;;79.60;29.60;;;8.20;98.30;;;;;;5066317;23;20851;-80
2021/05/02 04:19:40;;;;;;;48.70;30.47;;;8.20;98.30;;;;;;5065718;23;20493;-81
2021/05/02 04:21:42;;;;;;;71.67;32.00;;;8.20;98.30;;;;;;5066522;23;20523;-81
2021/05/02 04:23:44;;;;;;;72.23;33.10;;;8.20;98.30;;;;;;5065601;23;20438;-81
2021/05/02 04:25:46;;;;;;;59.97;31.10;;;8.20;98.30;;;;;;5066232;23;21089;-80
2021/05/02 04:27:48;;;;;;;46.20;29.47;;;8.20;98.30;;;;;;5065917;23;20511;-81
2021/05/02 04:29:50;;;;;;;58.60;29.47;;;8.20;98.30;;;;;;5066587;23;20486;-81
2021/05/02 04:31:53;;;;;;;61.07;29.27;;;8.20;98.30;;;;;;5066632;23;20467;-80
2021/05/02 04:33:55;;;;;;;48.47;29.40;;;8.20;98.30;;;;;;5074525;23;21170;-82
2021/05/02 04:35:57;;;;;;;78.77;30.50;;;8.10;98.30;;;;;;5065651;23;20456;-79
2021/05/02 04:37:59;;;;;;;55.73;29.60;;;8.20;98.30;;;;;;5066279;23;20436;-81
2021/05/02 04:40:01;;;;;;;84.30;31.20;;;8.10;98.30;;;;;;5066882;23;20437;-80
2021/05/02 04:42:04;;;;;;;66.57;29.60;;;8.10;98.30;;;;;;5066306;23;20476;-81
2021/05/02 04:44:06;;;;;;;48.97;30.00;;;8.20;98.30;;;;;;5067320;23;20926;-80
2021/05/02 04:46:11;;;;;;;56.40;30.70;;;8.20;98.30;;;;;;5066126;23;20478;-81
2021/05/02 04:48:13;;;;;;;60.00;29.00;;;8.20;98.30;;;;;;5074316;23;20456;-81
2021/05/02 04:50:14;;;;;;;60.07;29.60;;;8.20;98.30;;;;;;5070391;23;20462;-80
2021/05/02 04:52:16;;;;;;;63.37;28.67;;;8.20;98.30;;;;;;5070859;23;20455;-81
2021/05/02 04:54:20;;;;;;;57.83;28.43;;;8.10;98.30;;;;;;5079173;23;20539;-81
2021/05/02 04:56:22;;;;;;;67.20;28.73;;;8.20;98.30;;;;;;5070626;23;20460;-80
2021/05/02 04:58:24;;;;;;;67.70;29.20;;;8.20;98.30;;;;;;5069385;23;20759;-81
2021/05/02 05:00:26;;;;;;;54.53;29.87;;;8.20;98.30;;;;;;5077670;23;20775;-81
2021/05/02 05:02:29;;;;;;;85.97;29.97;;;8.30;98.30;;;;;;5068478;23;20439;-81
2021/05/02 05:04:31;;;;;;;52.73;28.47;;;8.40;98.30;;;;;;5068181;23;20462;-81
2021/05/02 05:06:34;;;;;;;50.80;28.47;;;8.40;98.30;;;;;;5068517;23;20434;-81
2021/05/02 05:08:36;;;;;;;60.27;28.60;;;8.40;98.30;;;;;;5069422;23;20545;-81
2021/05/02 05:10:38;;;;;;;69.80;30.27;;;8.50;98.30;;;;;;5076787;23;20428;-80
2021/05/02 05:12:40;;;;;;;54.27;28.97;;;8.50;98.30;;;;;;5075928;23;20596;-80
2021/05/02 05:14:43;;;;;;;59.57;29.17;;;8.40;98.30;;;;;;5069951;23;20760;-80
2021/05/02 05:16:44;;;;;;;65.73;28.60;;;8.40;98.30;;;;;;5077089;23;21040;-81
2021/05/02 05:18:47;;;;;;;58.17;28.53;;;8.40;98.30;;;;;;5068318;23;20442;-81
2021/05/02 05:20:49;;;;;;;64.93;31.23;;;8.40;98.30;;;;;;5068945;23;20490;-81
2021/05/02 05:22:50;;;;;;;70.80;29.77;;;8.40;98.30;;;;;;5068177;23;20441;-81
2021/05/02 05:24:52;;;;;;;82.10;31.07;;;8.30;98.30;;;;;;5068261;23;20434;-81
2021/05/02 05:26:54;;;;;;;60.50;30.53;;;8.40;98.30;;;;;;5067847;23;20917;-81
2021/05/02 05:28:56;;;;;;;54.33;31.10;;;8.30;98.30;;;;;;5068841;23;20460;-81
2021/05/02 05:30:59;;;;;;;68.03;30.97;;;8.30;98.30;;;;;;5076267;23;20427;-80
2021/05/02 05:33:02;;;;;;;77.57;31.47;;;8.30;98.30;;;;;;5066091;23;20464;-81
2021/05/02 05:35:06;;;;;;;66.90;32.00;;;8.20;98.30;;;;;;5065859;23;20468;-80
2021/05/02 05:37:07;;;;;;;70.33;32.63;;;8.20;98.30;;;;;;5066918;23;20434;-80
2021/05/02 05:39:10;;;;;;;58.80;33.47;;;8.30;98.30;;;;;;5066577;23;20490;-79
2021/05/02 05:41:12;;;;;;;53.63;30.00;;;8.30;98.30;;;;;;5067569;23;20489;-81
2021/05/02 05:43:13;;;;;;;50.63;31.50;;;8.30;98.30;;;;;;5068607;23;20426;-81
2021/05/02 05:45:18;;;;;;;62.27;36.20;;;8.30;98.30;;;;;;5075630;23;20755;-81
2021/05/02 05:47:25;;;;;;;62.73;36.70;;;8.40;98.30;;;;;;5067433;23;20487;-80
2021/05/02 05:49:27;;;;;;;66.07;39.60;;;8.50;98.30;;;;;;5068333;23;20454;-81
2021/05/02 05:51:29;;;;;;;47.60;30.87;;;8.60;98.30;;;;;;5075338;23;20456;-81
2021/05/02 05:53:31;;;;;;;47.87;30.17;;;8.70;98.30;;;;;;5067593;23;20442;-79
2021/05/02 05:55:33;;;;;;;49.07;31.40;;;8.70;98.30;;;;;;5074691;23;20456;-81
2021/05/02 05:57:35;;;;;;;55.03;34.50;;;8.70;98.30;;;;;;5067269;23;20805;-81
2021/05/02 05:59:37;;;;;;;129.13;67.30;;;8.60;98.30;;;;;;5075215;23;20452;-80
2021/05/02 06:01:39;;;;;;;76.37;43.23;;;8.70;98.30;;;;;;5066800;23;20426;-81
2021/05/02 06:03:42;;;;;;;61.73;30.80;;;8.60;98.30;;;;;;5066564;23;20452;-80
2021/05/02 06:05:43;;;;;;;55.63;30.90;;;8.60;98.30;;;;;;5066387;23;20454;-81
2021/05/02 06:07:45;;;;;;;48.37;31.93;;;8.50;98.30;;;;;;5066763;23;20462;-81
2021/05/02 06:09:47;;;;;;;47.77;29.53;;;8.60;98.30;;;;;;5075305;23;20430;-80
2021/05/02 06:11:50;;;;;;;43.30;30.00;;;8.60;98.30;;;;;;5077886;23;20432;-81
2021/05/02 06:13:52;;;;;;;52.40;31.03;;;8.60;98.30;;;;;;5067812;23;20434;-81
2021/05/02 06:15:53;;;;;;;50.60;32.90;;;8.80;98.30;;;;;;5066354;23;20493;-80
2021/05/02 06:17:55;;;;;;;61.07;39.27;;;8.90;98.30;;;;;;5063875;23;20464;-80
2021/05/02 06:19:58;;;;;;;76.60;44.13;;;9.10;98.30;;;;;;5074370;23;20462;-80
2021/05/02 06:22:00;;;;;;;71.80;44.77;;;9.30;98.30;;;;;;5065065;23;20459;-80
2021/05/02 06:24:06;;;;;;;81.50;47.00;;;9.30;98.30;;;;;;5077522;23;20487;-81
2021/05/02 06:26:07;;;;;;;51.93;33.73;;;9.40;98.30;;;;;;5070572;23;20473;-81
2021/05/02 06:28:09;;;;;;;45.50;28.90;;;9.40;98.30;;;;;;5071784;23;20456;-81
2021/05/02 06:30:12;;;;;;;48.73;32.13;;;9.40;98.30;;;;;;5071779;23;20554;-80
2021/05/02 06:32:14;;;;;;;49.60;33.93;;;9.40;98.30;;;;;;5079518;23;20454;-82
2021/05/02 06:34:16;;;;;;;45.30;30.00;;;9.50;98.30;;;;;;5079268;23;20522;-81
2021/05/02 06:36:19;;;;;;;46.20;31.53;;;9.60;98.30;;;;;;5072040;23;20459;-81
2021/05/02 06:38:21;;;;;;;46.70;32.53;;;9.60;98.30;;;;;;5072527;23;20455;-81
2021/05/02 06:40:23;;;;;;;43.97;32.97;;;9.60;98.30;;;;;;5072526;23;20531;-81
2021/05/02 06:42:25;;;;;;;49.33;29.97;;;9.60;98.30;;;;;;5070663;23;20441;-81
2021/05/02 06:44:27;;;;;;;44.67;30.67;;;9.50;98.30;;;;;;5071035;23;20447;-83
2021/05/02 06:46:30;;;;;;;44.20;29.67;;;9.50;98.30;;;;;;5070078;23;20453;-82
2021/05/02 06:48:32;;;;;;;46.53;30.40;;;9.60;98.30;;;;;;5068530;23;20455;-81
2021/05/02 06:50:34;;;;;;;44.67;31.10;;;9.70;98.30;;;;;;5070319;23;20479;-81
2021/05/02 06:52:36;;;;;;;42.27;30.60;;;9.70;98.30;;;;;;5078193;23;20444;-81
2021/05/02 06:54:38;;;;;;;44.03;29.37;;;9.70;98.30;;;;;;5069318;23;20479;-80
2021/05/02 06:56:40;;;;;;;43.63;30.33;;;9.70;98.30;;;;;;5068736;23;20984;-81
2021/05/02 06:58:42;;;;;;;44.87;31.00;;;9.70;98.30;;;;;;5069686;23;20521;-80
2021/05/02 07:00:44;;;;;;;46.77;32.27;;;9.90;98.30;;;;;;5070568;23;20434;-80
2021/05/02 07:02:46;;;;;;;43.23;29.50;;;10.00;98.30;;;;;;5070341;23;20953;-80
2021/05/02 07:04:48;;;;;;;42.03;28.27;;;10.00;98.30;;;;;;5069249;23;21135;-80
2021/05/02 07:06:50;;;;;;;45.00;30.87;;;10.00;98.30;;;;;;5069614;23;20452;-81
2021/05/02 07:08:53;;;;;;;47.13;32.17;;;10.10;98.30;;;;;;5070082;23;20459;-81
2021/05/02 07:10:54;;;;;;;43.70;30.67;;;10.30;98.30;;;;;;5077543;23;20774;-80
2021/05/02 07:12:56;;;;;;;40.80;29.10;;;10.40;98.30;;;;;;5068914;23;20516;-81
2021/05/02 07:14:58;;;;;;;46.10;32.80;;;10.60;98.30;;;;;;5067742;23;20483;-82
2021/05/02 07:17:00;;;;;;;44.00;32.03;;;10.70;98.30;;;;;;5069166;23;20467;-81
2021/05/02 07:19:04;;;;;;;53.20;32.30;;;10.50;98.30;;;;;;5069404;23;21197;-80
2021/05/02 07:21:07;;;;;;;41.70;29.50;;;10.40;98.30;;;;;;5069935;23;20463;-81
2021/05/02 07:23:09;;;;;;;42.70;28.47;;;10.40;98.30;;;;;;5069338;23;20456;-80
2021/05/02 07:25:12;;;;;;;38.07;27.37;;;10.50;98.30;;;;;;5078298;23;20473;-81
2021/05/02 07:27:14;;;;;;;36.43;27.47;;;10.60;98.30;;;;;;5069012;23;20491;-80
2021/05/02 07:29:16;;;;;;;36.90;28.87;;;10.70;98.30;;;;;;5068787;23;20465;-81
2021/05/02 07:31:19;;;;;;;34.97;25.50;;;10.90;98.30;;;;;;5068539;23;20459;-80
2021/05/02 07:33:22;;;;;;;34.63;26.70;;;10.90;98.30;;;;;;5069096;23;20460;-82
2021/05/02 07:35:24;;;;;;;36.60;24.47;;;10.90;98.30;;;;;;5069484;23;20456;-80
2021/05/02 07:37:26;;;;;;;36.00;26.47;;;11.10;98.30;;;;;;5067211;23;20462;-80
2021/05/02 07:39:28;;;;;;;34.03;25.40;;;11.20;98.30;;;;;;5067951;23;20467;-81
2021/05/02 07:41:33;;;;;;;32.10;25.33;;;11.30;98.30;;;;;;5069468;23;20507;-80
2021/05/02 07:43:35;;;;;;;53.03;35.77;;;11.30;98.30;;;;;;5068697;23;20427;-81
2021/05/02 07:45:37;;;;;;;51.47;33.03;;;11.40;98.30;;;;;;5079242;23;20510;-80
2021/05/02 07:47:40;;;;;;;38.43;29.10;;;11.40;98.30;;;;;;5069566;23;20460;-81
2021/05/02 07:49:43;;;;;;;36.63;25.50;;;11.40;98.30;;;;;;5080949;23;20455;-80
2021/05/02 07:51:44;;;;;;;29.10;23.57;;;11.50;98.30;;;;;;5083279;23;20473;-80
2021/05/02 07:53:47;;;;;;;27.43;22.00;;;11.50;98.30;;;;;;5073179;23;20455;-81
2021/05/02 07:55:49;;;;;;;26.93;22.20;;;11.60;98.30;;;;;;5081821;23;20448;-81
2021/05/02 07:57:52;;;;;;;27.47;20.33;;;11.80;98.30;;;;;;5072676;23;20498;-81
2021/05/02 07:59:54;;;;;;;23.93;19.47;;;12.00;98.30;;;;;;5073360;23;20516;-81
2021/05/02 08:01:56;;;;;;;23.83;18.77;;;12.10;98.30;;;;;;5074073;23;20758;-81
2021/05/02 08:03:58;;;;;;;20.40;17.37;;;12.20;98.30;;;;;;5083086;23;20530;-80
2021/05/02 08:06:00;;;;;;;22.80;18.67;;;12.40;98.30;;;;;;5074048;23;20498;-81
2021/05/02 08:08:02;;;;;;;22.30;18.03;;;12.50;98.30;;;;;;5073093;23;20447;-81
2021/05/02 08:10:05;;;;;;;20.93;17.77;;;12.70;98.30;;;;;;5071875;23;20945;-81
2021/05/02 08:12:09;;;;;;;20.20;17.37;;;12.60;98.30;;;;;;5080551;23;20451;-81
2021/05/02 08:14:13;;;;;;;20.30;17.00;;;12.60;98.30;;;;;;5072832;23;20479;-82
2021/05/02 08:16:16;;;;;;;20.57;17.90;;;12.70;98.30;;;;;;5072259;23;20538;-82
2021/05/02 08:18:18;;;;;;;19.60;17.50;;;12.60;98.30;;;;;;5070010;23;20555;-82
2021/05/02 08:20:20;;;;;;;20.37;17.87;;;12.50;98.30;;;;;;5071369;23;20463;-82
2021/05/02 08:22:21;;;;;;;20.87;16.80;;;12.80;98.30;;;;;;5070088;23;20460;-81
2021/05/02 08:24:23;;;;;;;19.97;17.30;;;13.00;98.30;;;;;;5071995;23;20769;-80
2021/05/02 08:26:25;;;;;;;19.50;16.37;;;13.00;98.30;;;;;;5071695;23;20463;-80
2021/05/02 08:28:27;;;;;;;17.63;15.73;;;12.90;98.30;;;;;;5072422;23;20462;-80
2021/05/02 08:30:34;;;;;;;19.73;17.50;;;13.00;98.30;;;;;;5072436;23;20989;-82
2021/05/02 08:33:02;;;;;;;24.53;18.87;;;13.00;98.30;;;;;;5067430;23;20490;-81
2021/05/02 08:35:05;;;;;;;20.00;17.80;;;12.90;98.30;;;;;;5077121;23;20476;-81
2021/05/02 08:37:07;;;;;;;19.03;17.10;;;12.80;98.30;;;;;;5076732;23;20494;-80
2021/05/02 08:39:09;;;;;;;17.90;16.10;;;12.60;98.30;;;;;;5068807;23;20455;-80
2021/05/02 08:41:11;;;;;;;16.90;15.20;;;12.50;98.30;;;;;;5069340;23;20460;-81
2021/05/02 08:43:13;;;;;;;16.50;14.90;;;12.60;98.30;;;;;;5077062;23;20447;-80
2021/05/02 08:45:15;;;;;;;19.30;16.53;;;12.50;98.30;;;;;;5068800;23;20536;-80
2021/05/02 08:47:18;;;;;;;15.67;14.00;;;12.40;98.30;;;;;;5076308;23;21141;-81
2021/05/02 08:49:20;;;;;;;17.10;15.23;;;12.10;98.30;;;;;;5076625;23;20455;-80
2021/05/02 08:51:23;;;;;;;18.47;15.97;;;11.90;98.30;;;;;;5068750;23;20460;-80
2021/05/02 08:53:25;;;;;;;17.23;15.43;;;11.90;98.30;;;;;;5068819;23;20455;-79
2021/05/02 08:55:28;;;;;;;17.43;15.00;;;11.90;98.30;;;;;;5068592;23;20459;-81
2021/05/02 08:57:30;;;;;;;19.07;16.93;;;11.90;98.30;;;;;;5068173;23;20463;-81
2021/05/02 08:59:32;;;;;;;21.30;17.50;;;11.90;98.30;;;;;;5076115;23;20462;-79
2021/05/02 09:01:34;;;;;;;19.93;16.97;;;12.00;98.30;;;;;;5067225;23;20462;-79
2021/05/02 09:03:51;;;;;;;19.63;16.37;;;12.00;98.30;;;;;;5075506;23;20950;-81
2021/05/02 09:05:54;;;;;;;18.50;15.40;;;11.90;98.30;;;;;;5075162;23;20785;-80
2021/05/02 09:07:56;;;;;;;16.33;14.60;;;12.00;98.30;;;;;;5075560;23;20597;-80
2021/05/02 09:09:58;;;;;;;17.17;14.90;;;12.20;98.30;;;;;;5067742;23;20755;-81
2021/05/02 09:12:00;;;;;;;17.00;15.20;;;12.50;98.30;;;;;;5068111;23;20488;-80
2021/05/02 09:14:04;;;;;;;17.70;15.30;;;12.70;98.30;;;;;;5075418;23;20459;-80
2021/05/02 09:16:10;;;;;;;15.50;13.83;;;12.60;98.30;;;;;;5067094;23;20460;-81
2021/05/02 09:18:31;;;;;;;18.00;14.93;;;12.60;98.30;;;;;;5050469;23;20460;-80
2021/05/02 09:20:42;;;;;;;18.13;14.80;;;12.70;98.30;;;;;;5068065;23;20471;-80
2021/05/02 09:22:54;;;;;;;16.40;14.67;;;12.80;98.30;;;;;;5075421;23;20458;-81
2021/05/02 09:25:14;;;;;;;16.60;14.03;;;12.60;98.30;;;;;;5067204;23;20968;-79
2021/05/02 09:27:17;;;;;;;15.50;13.80;;;12.40;98.30;;;;;;5066492;23;20530;-79
2021/05/02 09:31:35;;;;;;;16.03;13.73;;;12.20;98.30;;;;;;5091714;23;20462;-79
2021/05/02 09:33:38;;;;;;;15.87;12.60;;;12.20;98.30;;;;;;5095320;23;20584;-79
2021/05/02 09:35:50;;;;;;;15.20;13.47;;;12.30;98.30;;;;;;5104349;23;20554;-79
2021/05/02 09:38:10;;;;;;;13.20;11.77;;;12.40;98.30;;;;;;5094560;23;20462;-79
2021/05/02 09:40:16;;;;;;;15.33;12.70;;;12.50;98.30;;;;;;5093320;23;20451;-78
2021/05/02 09:42:20;;;;;;;12.67;10.37;;;12.70;98.30;;;;;;5092753;23;20493;-78
2021/05/02 09:44:46;;;;;;;13.10;11.20;;;12.80;97.00;;;;;;5092540;23;20458;-78
2021/05/02 09:46:50;;;;;;;10.67;9.57;;;12.60;97.00;;;;;;5094113;23;20542;-79
2021/05/02 09:48:55;;;;;;;13.33;10.40;;;12.40;96.60;;;;;;5094569;23;20451;-79
2021/05/02 09:51:11;;;;;;;9.87;8.63;;;12.20;97.10;;;;;;5102484;23;20454;-79
2021/05/02 09:53:15;;;;;;;9.57;8.63;;;12.20;96.00;;;;;;5096093;23;20458;-79
2021/05/02 09:55:24;;;;;;;11.10;9.93;;;12.20;95.80;;;;;;5096262;23;20451;-79
2021/05/02 09:57:26;;;;;;;12.07;10.80;;;12.60;95.80;;;;;;5094935;23;20505;-80
2021/05/02 09:59:32;;;;;;;12.17;9.77;;;12.80;95.10;;;;;;5094526;23;20463;-82
2021/05/02 10:05:19;;;;;;;11.33;10.13;;;13.50;92.40;;;;;;5042161;23;21163;-80
2021/05/02 10:10:53;;;;;;;11.73;9.17;;;13.50;94.10;;;;;;5032816;23;20440;-80
2021/05/02 10:12:59;;;;;;;13.83;10.90;;;13.70;93.30;;;;;;5027088;23;20454;-80
2021/05/02 10:15:06;;;;;;;11.80;10.70;;;14.00;92.60;;;;;;5050692;23;20463;-81
2021/05/02 10:17:08;;;;;;;10.13;9.17;;;14.20;93.20;;;;;;5051167;23;20461;-80
2021/05/02 10:19:12;;;;;;;10.93;9.83;;;14.20;92.10;;;;;;5051332;23;20787;-80
2021/05/02 10:21:15;;;;;;;10.70;9.50;;;14.00;92.50;;;;;;5042962;23;20854;-80
2021/05/02 10:23:18;;;;;;;11.90;9.77;;;13.90;92.90;;;;;;5043176;23;20560;-80
2021/05/02 10:25:20;;;;;;;10.43;9.20;;;14.00;92.20;;;;;;5042584;23;20799;-81
2021/05/02 10:27:23;;;;;;;11.50;8.80;;;14.00;92.50;;;;;;5042506;23;20453;-80
2021/05/02 10:29:26;;;;;;;11.57;9.90;;;13.70;92.90;;;;;;5068092;23;20447;-80
2021/05/02 10:31:29;;;;;;;11.17;10.10;;;13.30;92.60;;;;;;5095090;23;20578;-80
2021/05/02 10:33:34;;;;;;;13.20;9.23;;;13.20;94.20;;;;;;5093867;23;20486;-80
2021/05/02 10:35:44;;;;;;;14.13;12.43;;;13.20;93.90;;;;;;5094861;23;20458;-80
2021/05/02 10:37:54;;;;;;;9.80;8.80;;;13.40;94.80;;;;;;5102789;23;20468;-80
2021/05/02 10:39:58;;;;;;;11.80;9.00;;;13.60;92.40;;;;;;5091676;23;20951;-80
2021/05/02 10:42:00;;;;;;;10.30;9.30;;;13.80;92.00;;;;;;5091823;23;20455;-80